createdAt,value
2022-11-18T04:31:56.088Z,1.70
2022-11-18T04:47:02.292Z,1.53
2022-11-18T05:02:06.721Z,1.77
2022-11-18T05:17:11.541Z,2.40
2022-11-18T05:32:15.982Z,2.03
2022-11-18T05:47:20.366Z,3.40
2022-11-18T06:02:25.339Z,3.00
2022-11-18T06:17:33.444Z,3.57
2022-11-18T06:32:37.796Z,3.47
2022-11-18T06:47:42.223Z,3.80
2022-11-18T07:02:46.861Z,3.47
2022-11-18T07:17:51.559Z,3.80
2022-11-18T07:32:56.142Z,3.77
2022-11-18T07:48:00.569Z,3.23
2022-11-18T08:03:05.058Z,4.50
2022-11-18T08:18:13.541Z,2.77
2022-11-18T08:33:18.389Z,3.90
2022-11-18T08:48:22.784Z,3.23
2022-11-18T09:03:27.374Z,4.13
2022-11-18T09:18:32.626Z,2.77
2022-11-18T09:33:37.735Z,2.63
2022-11-18T09:48:56.069Z,3.37
2022-11-18T10:04:00.742Z,2.73
2022-11-18T10:19:16.674Z,3.47
2022-11-18T10:34:22.137Z,3.17
2022-11-18T10:49:26.548Z,3.47
2022-11-18T11:04:32.045Z,2.17
2022-11-18T11:19:52.753Z,3.03
2022-11-18T11:35:08.031Z,2.23
2022-11-18T11:50:18.352Z,2.90
2022-11-18T12:05:31.043Z,3.87
2022-11-18T12:20:41.627Z,3.07
2022-11-18T12:35:51.592Z,4.53
2022-11-18T12:50:57.184Z,2.97
2022-11-18T13:06:09.290Z,2.60
2022-11-18T13:21:41.339Z,2.70
2022-11-18T13:36:47.964Z,2.53
2022-11-18T13:51:53.452Z,2.13
2022-11-18T14:07:17.181Z,2.63
2022-11-18T14:22:23.913Z,1.97
2022-11-18T14:37:28.844Z,3.27
2022-11-18T14:52:34.375Z,2.80
2022-11-18T15:07:38.864Z,2.47
2022-11-18T15:22:43.490Z,2.13
2022-11-18T15:37:47.878Z,3.50
2022-11-18T15:52:54.254Z,1.83
2022-11-18T16:07:58.688Z,2.33
2022-11-18T16:23:03.103Z,3.43
2022-11-18T16:38:10.478Z,2.90
2022-11-18T16:53:14.870Z,2.23
2022-11-18T17:08:19.300Z,2.70
2022-11-18T17:23:23.653Z,3.00
2022-11-18T17:53:32.618Z,2.73
2022-11-18T18:08:37.630Z,3.47
2022-11-18T18:23:42.194Z,3.37
2022-11-18T18:38:47.123Z,4.73
2022-11-18T18:53:51.530Z,6.17
2022-11-18T19:08:57.383Z,6.03
2022-11-18T19:24:02.487Z,16.30
2022-11-18T19:39:06.894Z,6.27
2022-11-18T19:54:13.885Z,7.23
2022-11-18T20:09:19.174Z,8.00
2022-11-18T20:24:23.779Z,6.83
2022-11-18T20:39:28.591Z,7.30
2022-11-18T20:54:33.739Z,6.80
2022-11-18T21:09:38.171Z,7.07
2022-11-18T21:24:42.576Z,5.53
2022-11-18T21:39:47.190Z,5.30
